Time;durP1;ratioP1;P1;durP2;ratioP2;P2;SDS_P1;SDS_P2;PMS_P1;PMS_P2;Temp;Humidity;BMP_temperature;BMP_pressure;BME280_temperature;BME280_humidity;BME280_pressure;Samples;Min_cycle;Max_cycle;Signal;HPM_P1;HPM_P2
2021/06/14 00:02:23;;;;;;;2.83;0.88;;;18.30;51.20;;;;;;2263010;55;21528;-86
2021/06/14 00:04:50;;;;;;;4.87;1.23;;;18.30;51.20;;;;;;2485319;55;21321;-86
2021/06/14 00:07:17;;;;;;;1.90;1.00;;;18.20;51.20;;;;;;2485828;55;20970;-84
2021/06/14 00:09:44;;;;;;;2.75;1.00;;;18.20;51.30;;;;;;2259594;55;21026;-85
2021/06/14 00:12:11;;;;;;;2.08;0.90;;;18.20;51.50;;;;;;2485821;55;20974;-85
2021/06/14 00:14:37;;;;;;;1.55;0.70;;;18.10;51.50;;;;;;2485812;55;21356;-85
2021/06/14 00:17:03;;;;;;;2.10;1.05;;;18.10;52.20;;;;;;2268001;55;21147;-85
2021/06/14 00:19:30;;;;;;;3.85;1.30;;;18.10;51.80;;;;;;2269671;54;21858;-86
2021/06/14 00:21:56;;;;;;;1.83;0.70;;;18.00;51.90;;;;;;2486473;55;21013;-86
2021/06/14 00:24:22;;;;;;;2.25;0.98;;;18.00;52.00;;;;;;2260672;55;20994;-85
2021/06/14 00:26:49;;;;;;;1.83;0.88;;;18.00;52.00;;;;;;2487294;55;22067;-85
2021/06/14 00:29:15;;;;;;;2.25;1.00;;;17.90;52.00;;;;;;2265700;55;21120;-84
2021/06/14 00:31:41;;;;;;;2.05;0.93;;;17.90;52.00;;;;;;2487618;55;20990;-85
2021/06/14 00:34:08;;;;;;;2.60;1.00;;;17.90;52.10;;;;;;2488939;55;20994;-86
2021/06/14 00:36:35;;;;;;;2.80;1.00;;;17.80;52.20;;;;;;2487579;55;21027;-86
2021/06/14 00:39:01;;;;;;;2.40;1.20;;;17.80;52.30;;;;;;2260118;56;21078;-85
2021/06/14 00:41:28;;;;;;;2.50;0.98;;;17.70;52.30;;;;;;2260198;56;21055;-86
2021/06/14 00:43:54;;;;;;;2.58;1.05;;;17.70;52.40;;;;;;2483699;55;20973;-83
2021/06/14 00:46:20;;;;;;;2.30;1.05;;;17.60;52.40;;;;;;2267868;54;21069;-85
2021/06/14 00:48:46;;;;;;;2.40;1.10;;;17.60;52.50;;;;;;2255420;55;20928;-85
2021/06/14 00:51:13;;;;;;;3.10;1.10;;;17.60;52.80;;;;;;2458239;55;21006;-85
2021/06/14 00:53:41;;;;;;;2.22;1.02;;;17.50;52.60;;;;;;2450716;55;20982;-85
2021/06/14 00:56:09;;;;;;;2.22;1.00;;;17.50;52.80;;;;;;2452755;55;21352;-84
2021/06/14 00:58:36;;;;;;;2.30;0.98;;;17.50;52.90;;;;;;2452814;55;22060;-84
2021/06/14 01:01:04;;;;;;;1.77;0.88;;;17.40;52.90;;;;;;2233418;56;20962;-85
2021/06/14 01:03:30;;;;;;;2.35;1.05;;;17.40;53.00;;;;;;2452649;55;22153;-85
2021/06/14 01:05:58;;;;;;;2.30;1.10;;;17.40;53.10;;;;;;2452805;55;21426;-85
2021/06/14 01:08:25;;;;;;;2.72;0.93;;;17.30;53.30;;;;;;2235178;56;21706;-84
2021/06/14 01:10:51;;;;;;;2.17;1.00;;;17.30;53.30;;;;;;2230134;56;21022;-84
2021/06/14 01:15:11;;;;;;;2.72;1.23;;;17.30;53.30;;;;;;2452970;55;20971;-85
2021/06/14 01:17:49;;;;;;;1.75;0.85;;;17.30;53.40;;;;;;2232508;56;22061;-85
2021/06/14 01:20:42;;;;;;;2.10;0.90;;;17.20;53.20;;;;;;2225409;56;20971;-84
2021/06/14 01:26:43;;;;;;;2.40;0.90;;;17.20;53.40;;;;;;2454249;55;20959;-85
2021/06/14 01:29:09;;;;;;;1.67;0.73;;;17.20;53.30;;;;;;2254891;55;21169;-85
2021/06/14 01:31:35;;;;;;;4.07;1.15;;;17.00;53.00;;;;;;2251531;55;20982;-86
2021/06/14 01:34:02;;;;;;;2.00;0.90;;;17.00;53.20;;;;;;2469787;55;22377;-85
2021/06/14 01:36:33;;;;;;;2.03;1.00;;;17.00;53.40;;;;;;2456787;55;20939;-86
2021/06/14 01:38:59;;;;;;;3.45;1.08;;;17.00;53.70;;;;;;2454438;55;21007;-87
2021/06/14 01:41:27;;;;;;;2.40;0.93;;;16.90;53.60;;;;;;2454776;55;20990;-86
2021/06/14 01:43:53;;;;;;;3.22;1.15;;;16.90;53.70;;;;;;2234553;55;21077;-85
2021/06/14 01:46:22;;;;;;;2.42;1.12;;;16.90;53.80;;;;;;2454618;55;20983;-86
2021/06/14 01:48:48;;;;;;;3.47;1.10;;;16.80;54.00;;;;;;2251442;55;20955;-85
2021/06/14 01:51:18;;;;;;;2.62;1.30;;;16.80;54.00;;;;;;2454576;55;20987;-86
2021/06/14 01:54:02;;;;;;;2.28;1.00;;;16.80;54.20;;;;;;2465806;55;20997;-86
2021/06/14 01:56:40;;;;;;;2.37;1.23;;;16.80;54.20;;;;;;2457175;55;21022;-86
2021/06/14 01:59:08;;;;;;;2.03;1.02;;;16.70;54.30;;;;;;2471652;55;21014;-85
2021/06/14 02:01:35;;;;;;;2.67;1.00;;;16.70;54.20;;;;;;2234392;55;21914;-86
2021/06/14 02:04:01;;;;;;;4.05;1.08;;;16.70;54.30;;;;;;2455080;55;21515;-85
2021/06/14 02:06:30;;;;;;;3.42;1.17;;;16.70;54.40;;;;;;2239234;55;20954;-86
2021/06/14 02:08:58;;;;;;;2.97;1.10;;;16.60;54.50;;;;;;2470893;55;21009;-86
2021/06/14 02:11:24;;;;;;;2.62;1.30;;;16.60;54.60;;;;;;2235388;55;20963;-83
2021/06/14 02:13:51;;;;;;;3.37;1.17;;;16.60;54.70;;;;;;2235261;55;20970;-85
2021/06/14 02:16:17;;;;;;;2.33;0.88;;;16.60;54.70;;;;;;2248662;55;20970;-86
2021/06/14 02:18:44;;;;;;;2.62;1.33;;;16.50;54.60;;;;;;2253617;55;21122;-88
2021/06/14 02:21:10;;;;;;;3.58;1.00;;;16.50;54.60;;;;;;2241243;55;21592;-85
2021/06/14 02:23:37;;;;;;;2.45;1.35;;;16.50;54.70;;;;;;2455227;55;21015;-87
2021/06/14 02:26:03;;;;;;;2.62;0.98;;;16.50;54.70;;;;;;2234554;55;20990;-86
2021/06/14 02:28:29;;;;;;;2.62;0.98;;;16.50;54.80;;;;;;2234385;55;20986;-86
2021/06/14 02:30:55;;;;;;;3.78;1.20;;;16.50;54.70;;;;;;2455012;55;20951;-86
2021/06/14 02:33:22;;;;;;;4.10;1.42;;;16.50;54.80;;;;;;2234856;55;20934;-86
2021/06/14 02:35:48;;;;;;;3.65;1.00;;;16.40;54.80;;;;;;2467148;55;20974;-86
2021/06/14 02:38:14;;;;;;;2.75;1.25;;;16.40;55.40;;;;;;2459673;55;21927;-85
2021/06/14 02:40:41;;;;;;;2.80;1.20;;;16.40;55.50;;;;;;2472617;55;20970;-84
2021/06/14 02:43:08;;;;;;;2.55;1.15;;;16.40;55.00;;;;;;2453452;55;20954;-84
2021/06/14 02:45:35;;;;;;;2.87;1.20;;;16.30;54.90;;;;;;2256555;55;21014;-84
2021/06/14 02:48:02;;;;;;;2.15;1.10;;;16.30;55.00;;;;;;2256589;55;21041;-84
2021/06/14 02:50:29;;;;;;;2.22;1.08;;;16.30;55.10;;;;;;2230883;55;21347;-85
2021/06/14 02:52:56;;;;;;;2.50;1.02;;;16.20;55.00;;;;;;2236125;55;21269;-85
2021/06/14 02:55:35;;;;;;;2.65;1.10;;;16.20;55.20;;;;;;2472530;55;20938;-84
2021/06/14 02:58:02;;;;;;;3.78;1.58;;;16.20;55.30;;;;;;2472103;55;20990;-84
2021/06/14 03:00:30;;;;;;;2.55;1.15;;;16.20;55.20;;;;;;2234078;55;20923;-85
2021/06/14 03:03:01;;;;;;;5.35;1.40;;;16.20;55.30;;;;;;2447323;56;20963;-84
2021/06/14 03:05:27;;;;;;;5.10;1.30;;;16.20;55.40;;;;;;2231189;56;21086;-85
2021/06/14 03:07:58;;;;;;;3.50;1.15;;;16.10;55.40;;;;;;2472746;55;20946;-85
2021/06/14 03:10:26;;;;;;;5.10;1.33;;;16.10;55.50;;;;;;2455925;55;21480;-84
2021/06/14 03:12:53;;;;;;;3.58;1.23;;;16.10;55.40;;;;;;2253831;55;21504;-84
2021/06/14 03:15:19;;;;;;;2.90;1.30;;;16.10;56.10;;;;;;2456637;55;20999;-84
2021/06/14 03:17:46;;;;;;;4.75;1.60;;;16.10;55.50;;;;;;2236571;55;21026;-85
2021/06/14 03:20:12;;;;;;;3.08;1.12;;;16.00;56.00;;;;;;2455624;55;20953;-84
2021/06/14 03:22:39;;;;;;;3.28;1.10;;;16.00;55.40;;;;;;2455414;55;21066;-84
2021/06/14 03:25:06;;;;;;;2.45;1.12;;;15.90;55.40;;;;;;2243763;55;21105;-84
2021/06/14 03:27:32;;;;;;;2.62;1.35;;;16.00;55.60;;;;;;2462499;55;21036;-84
2021/06/14 03:30:02;;;;;;;2.75;1.20;;;15.90;56.30;;;;;;2239660;55;21035;-84
2021/06/14 03:32:28;;;;;;;2.90;1.20;;;15.90;55.70;;;;;;2248507;55;21024;-84
2021/06/14 03:34:54;;;;;;;2.50;1.30;;;15.90;55.70;;;;;;2254363;55;21981;-83
2021/06/14 03:37:20;;;;;;;3.67;1.37;;;15.90;55.70;;;;;;2233573;55;21010;-84
2021/06/14 03:39:47;;;;;;;3.00;1.30;;;15.90;55.80;;;;;;2456137;55;20999;-85
2021/06/14 03:42:18;;;;;;;5.70;1.50;;;15.90;55.80;;;;;;2468779;55;20993;-85
2021/06/14 03:44:45;;;;;;;3.70;1.33;;;15.80;55.90;;;;;;2233364;55;22000;-84
2021/06/14 03:47:11;;;;;;;3.10;1.40;;;15.80;55.90;;;;;;2455154;55;21030;-84
2021/06/14 03:49:37;;;;;;;2.90;1.42;;;15.80;55.90;;;;;;2455647;55;22011;-84
2021/06/14 03:52:04;;;;;;;2.80;1.20;;;15.80;55.90;;;;;;2255955;55;21072;-84
2021/06/14 03:54:32;;;;;;;3.78;1.40;;;15.80;56.00;;;;;;2474150;55;21657;-86
2021/06/14 03:56:59;;;;;;;3.37;1.40;;;15.80;56.10;;;;;;2460344;55;20998;-85
2021/06/14 03:59:26;;;;;;;2.80;1.35;;;15.70;56.00;;;;;;2242053;55;21067;-84
2021/06/14 04:01:52;;;;;;;3.50;1.50;;;15.70;56.10;;;;;;2454571;55;22222;-83
2021/06/14 04:04:41;;;;;;;2.87;1.40;;;15.70;56.20;;;;;;2455315;55;21046;-82
2021/06/14 04:07:07;;;;;;;2.50;1.30;;;15.70;56.20;;;;;;2457509;55;20995;-84
2021/06/14 04:09:33;;;;;;;3.22;1.23;;;15.70;56.20;;;;;;2464968;55;21117;-83
2021/06/14 04:12:01;;;;;;;2.28;1.15;;;15.70;56.40;;;;;;2271230;55;21129;-87
2021/06/14 04:14:28;;;;;;;2.85;1.37;;;15.70;56.40;;;;;;2255637;55;20978;-86
2021/06/14 04:16:54;;;;;;;2.90;1.48;;;15.70;56.50;;;;;;2488363;55;21171;-85
2021/06/14 04:19:20;;;;;;;2.72;1.30;;;15.70;56.50;;;;;;2481513;55;21043;-85
2021/06/14 04:21:47;;;;;;;4.12;1.40;;;15.70;56.60;;;;;;2492022;55;21134;-85
2021/06/14 04:24:13;;;;;;;3.20;1.35;;;15.70;56.60;;;;;;2268790;56;20990;-84
2021/06/14 04:26:40;;;;;;;3.85;1.60;;;15.70;56.70;;;;;;2491654;55;21560;-86
2021/06/14 04:29:07;;;;;;;4.15;1.50;;;15.70;56.80;;;;;;2491724;55;20996;-85
2021/06/14 04:31:33;;;;;;;4.10;1.42;;;15.70;56.90;;;;;;2490640;55;21605;-85
2021/06/14 04:33:59;;;;;;;3.10;1.20;;;15.70;57.00;;;;;;2490164;55;21346;-85
2021/06/14 04:36:25;;;;;;;3.85;1.67;;;15.70;57.00;;;;;;2255887;55;21006;-85
2021/06/14 04:38:52;;;;;;;3.55;1.50;;;15.70;57.10;;;;;;2491410;55;21094;-85
2021/06/14 04:41:18;;;;;;;3.67;1.62;;;15.70;57.20;;;;;;2492112;55;21042;-87
2021/06/14 04:43:44;;;;;;;3.42;1.50;;;15.70;57.30;;;;;;2468575;55;21002;-87
2021/06/14 04:46:10;;;;;;;3.12;1.62;;;15.70;57.30;;;;;;2497996;54;20990;-86
2021/06/14 04:48:37;;;;;;;3.05;1.50;;;15.80;57.40;;;;;;2497727;54;21021;-87
2021/06/14 04:51:03;;;;;;;5.28;1.70;;;15.80;57.40;;;;;;2269416;55;20927;-85
2021/06/14 04:53:29;;;;;;;2.83;1.45;;;15.90;57.60;;;;;;2497021;54;21038;-86
2021/06/14 04:55:55;;;;;;;4.65;1.80;;;15.90;57.60;;;;;;2497329;54;20967;-86
2021/06/14 04:58:22;;;;;;;3.20;1.60;;;15.90;57.70;;;;;;2269674;55;20941;-87
2021/06/14 05:00:51;;;;;;;3.97;1.50;;;15.90;57.70;;;;;;2276284;55;21028;-87
2021/06/14 05:03:17;;;;;;;3.25;1.50;;;16.00;57.80;;;;;;2516943;53;21043;-87
2021/06/14 05:05:44;;;;;;;4.10;1.55;;;16.10;58.00;;;;;;2273408;55;21952;-86
2021/06/14 05:08:12;;;;;;;3.62;1.58;;;16.10;58.00;;;;;;2494985;55;21850;-87
2021/06/14 05:10:39;;;;;;;3.05;1.70;;;16.10;58.00;;;;;;2493303;55;20987;-85
2021/06/14 05:13:05;;;;;;;7.47;2.67;;;16.20;58.00;;;;;;2490115;54;21486;-85
2021/06/14 05:15:31;;;;;;;3.90;2.05;;;16.20;58.00;;;;;;2270428;55;21059;-86
2021/06/14 05:17:57;;;;;;;4.05;2.00;;;16.30;58.10;;;;;;2271242;55;22001;-84
2021/06/14 05:20:24;;;;;;;4.90;2.00;;;16.40;58.10;;;;;;2269434;55;20927;-85
2021/06/14 05:22:50;;;;;;;3.87;1.98;;;16.40;58.00;;;;;;2276663;55;21026;-84
2021/06/14 05:25:16;;;;;;;3.83;1.92;;;16.50;58.10;;;;;;2490681;54;20940;-84
2021/06/14 05:27:43;;;;;;;4.82;1.70;;;16.50;58.20;;;;;;2507084;54;21248;-85
2021/06/14 05:30:10;;;;;;;7.10;2.03;;;16.60;58.30;;;;;;2492596;54;20903;-85
2021/06/14 05:32:38;;;;;;;5.28;2.30;;;16.60;58.30;;;;;;2252861;55;21588;-85
2021/06/14 05:35:08;;;;;;;6.35;2.10;;;16.70;58.30;;;;;;2264806;55;21087;-85
2021/06/14 05:37:35;;;;;;;3.40;2.00;;;16.80;58.30;;;;;;2478225;54;21010;-85
2021/06/14 05:40:01;;;;;;;5.78;2.10;;;16.90;58.40;;;;;;2492469;55;21027;-84
2021/06/14 05:42:28;;;;;;;3.85;2.10;;;16.90;58.40;;;;;;2474075;55;20990;-84
2021/06/14 05:44:55;;;;;;;4.43;2.25;;;17.00;58.40;;;;;;2271090;55;21005;-84
2021/06/14 05:47:22;;;;;;;6.97;2.20;;;17.10;58.40;;;;;;2492830;55;21028;-85
2021/06/14 05:49:48;;;;;;;4.35;2.22;;;17.20;58.50;;;;;;2269111;55;20936;-86
2021/06/14 05:52:15;;;;;;;4.82;2.35;;;17.30;58.60;;;;;;2493595;54;21000;-85
2021/06/14 05:54:41;;;;;;;3.90;1.77;;;17.40;58.60;;;;;;2269224;55;21024;-85
2021/06/14 05:57:08;;;;;;;4.28;1.87;;;17.40;58.60;;;;;;2270573;55;20993;-84
2021/06/14 05:59:34;;;;;;;3.72;1.83;;;17.40;58.60;;;;;;2494954;55;21078;-85
2021/06/14 06:02:00;;;;;;;5.18;2.10;;;17.50;58.60;;;;;;2493625;55;21926;-85
2021/06/14 06:04:27;;;;;;;3.50;1.80;;;17.60;58.60;;;;;;2492266;55;21004;-84
2021/06/14 06:06:53;;;;;;;4.30;2.05;;;17.70;58.60;;;;;;2490245;55;21080;-84
2021/06/14 06:09:19;;;;;;;4.07;2.08;;;17.80;58.70;;;;;;2282068;54;21021;-84
2021/06/14 06:11:46;;;;;;;4.45;2.08;;;17.70;58.50;;;;;;2493272;55;20963;-84
2021/06/14 06:14:12;;;;;;;3.70;1.83;;;17.90;58.60;;;;;;2274625;54;20968;-85
2021/06/14 06:16:38;;;;;;;3.25;1.75;;;18.00;58.70;;;;;;2493402;54;21055;-85
2021/06/14 06:19:07;;;;;;;3.85;1.62;;;18.10;58.70;;;;;;2269696;55;20968;-85
2021/06/14 06:21:33;;;;;;;5.35;1.90;;;18.20;58.70;;;;;;2269834;56;21032;-85
2021/06/14 06:24:00;;;;;;;3.40;2.00;;;18.30;58.70;;;;;;2492955;54;21054;-85
2021/06/14 06:26:26;;;;;;;4.47;1.70;;;18.40;58.80;;;;;;2473298;55;20991;-85
2021/06/14 06:28:53;;;;;;;4.07;2.15;;;18.50;58.90;;;;;;2493068;55;20958;-85
2021/06/14 06:31:19;;;;;;;3.37;1.73;;;18.70;59.00;;;;;;2492017;55;20995;-85
2021/06/14 06:33:45;;;;;;;4.90;2.37;;;18.80;59.00;;;;;;2269394;55;21007;-84
2021/06/14 06:36:11;;;;;;;4.03;2.12;;;18.90;59.00;;;;;;2267239;55;20976;-85
2021/06/14 06:38:38;;;;;;;4.70;2.17;;;19.00;59.10;;;;;;2493272;55;21146;-86
2021/06/14 06:41:05;;;;;;;4.18;2.03;;;19.10;59.00;;;;;;2269612;55;21516;-85
2021/06/14 06:43:31;;;;;;;3.15;1.75;;;19.20;59.00;;;;;;2274177;54;21019;-85
2021/06/14 06:45:58;;;;;;;3.92;1.70;;;19.30;58.90;;;;;;2271705;55;21003;-85
2021/06/14 06:48:24;;;;;;;3.17;1.60;;;19.50;59.00;;;;;;2269568;55;21000;-85
2021/06/14 06:50:50;;;;;;;4.53;1.95;;;19.60;59.40;;;;;;2491887;55;20976;-85
2021/06/14 06:53:18;;;;;;;3.67;1.83;;;19.70;58.90;;;;;;2271051;55;20979;-86
2021/06/14 06:55:44;;;;;;;3.62;1.60;;;19.80;58.90;;;;;;2490902;54;20940;-85
2021/06/14 06:58:10;;;;;;;3.78;1.80;;;20.00;59.00;;;;;;2487481;55;21021;-85
2021/06/14 07:00:36;;;;;;;4.00;1.60;;;20.10;58.90;;;;;;2271988;55;20995;-85
2021/06/14 07:03:03;;;;;;;4.70;1.70;;;20.20;59.00;;;;;;2491389;55;20996;-85
2021/06/14 07:05:33;;;;;;;3.00;1.45;;;20.40;59.00;;;;;;2478084;55;20987;-85
2021/06/14 07:07:59;;;;;;;3.22;1.62;;;20.50;59.00;;;;;;2491273;55;21039;-85
2021/06/14 07:10:26;;;;;;;3.50;1.73;;;20.60;58.90;;;;;;2255050;54;1359810;-85
2021/06/14 07:12:54;;;;;;;4.47;2.05;;;20.80;59.00;;;;;;2490512;54;21629;-85
2021/06/14 07:15:21;;;;;;;3.85;1.98;;;21.00;59.00;;;;;;2269131;55;20991;-86
2021/06/14 07:17:47;;;;;;;2.97;1.60;;;21.10;59.10;;;;;;2268964;55;21657;-85
2021/06/14 07:20:13;;;;;;;3.37;1.70;;;21.20;59.10;;;;;;2268817;55;20979;-85
2021/06/14 07:22:40;;;;;;;3.65;1.87;;;21.40;59.30;;;;;;2497050;55;21004;-85
2021/06/14 07:25:07;;;;;;;4.10;1.77;;;21.50;59.20;;;;;;2492274;54;21394;-84
2021/06/14 07:27:33;;;;;;;3.83;1.95;;;21.70;59.20;;;;;;2492249;55;20983;-85
2021/06/14 07:30:00;;;;;;;4.00;1.85;;;21.80;59.10;;;;;;2491320;55;20968;-85
2021/06/14 07:32:26;;;;;;;3.28;1.50;;;22.00;59.10;;;;;;2288048;54;21002;-85
2021/06/14 07:34:53;;;;;;;3.45;1.52;;;22.10;59.00;;;;;;2271847;55;21485;-86
2021/06/14 07:37:19;;;;;;;3.00;1.58;;;22.30;58.90;;;;;;2267219;55;20979;-85
2021/06/14 07:39:46;;;;;;;5.82;1.70;;;22.40;58.50;;;;;;2491810;55;21046;-85
2021/06/14 07:42:12;;;;;;;3.65;1.75;;;22.50;58.40;;;;;;2268106;54;20971;-85
2021/06/14 07:44:39;;;;;;;4.53;1.65;;;22.70;58.30;;;;;;2267601;56;21003;-82
2021/06/14 07:47:05;;;;;;;3.65;1.60;;;22.80;58.20;;;;;;2491063;55;21422;-84
2021/06/14 07:49:32;;;;;;;3.75;1.73;;;22.80;58.00;;;;;;2490330;55;20976;-85
2021/06/14 07:51:58;;;;;;;2.85;1.67;;;23.00;57.90;;;;;;2270628;55;21019;-85
2021/06/14 07:54:24;;;;;;;4.62;1.65;;;23.10;57.80;;;;;;2490676;55;21011;-83
2021/06/14 07:56:52;;;;;;;3.83;1.77;;;23.10;57.80;;;;;;2272205;55;21024;-84
2021/06/14 07:59:19;;;;;;;2.95;1.73;;;23.20;57.60;;;;;;2268077;56;20983;-82
2021/06/14 08:01:45;;;;;;;4.47;2.12;;;23.30;57.70;;;;;;2509330;54;20979;-84
2021/06/14 08:04:12;;;;;;;3.55;1.60;;;23.40;57.70;;;;;;2491323;54;20960;-84
2021/06/14 08:06:38;;;;;;;3.70;1.62;;;23.50;57.50;;;;;;2517772;54;20979;-83
2021/06/14 08:09:08;;;;;;;3.35;1.70;;;23.60;57.40;;;;;;2497211;54;21042;-85
2021/06/14 08:11:35;;;;;;;3.60;1.85;;;23.70;57.20;;;;;;2491358;55;20927;-83
2021/06/14 08:14:01;;;;;;;3.17;1.60;;;23.80;57.10;;;;;;2490154;55;21040;-84
2021/06/14 08:16:40;;;;;;;2.78;1.58;;;23.90;56.90;;;;;;2491670;55;20960;-83
2021/06/14 08:19:09;;;;;;;6.63;1.77;;;24.00;56.70;;;;;;2464443;55;21107;-82
2021/06/14 08:22:07;;;;;;;4.00;1.77;;;24.00;56.60;;;;;;2271441;55;21020;-84
2021/06/14 08:27:18;;;;;;;3.33;1.45;;;24.20;56.50;;;;;;2273529;54;20985;-84
2021/06/14 08:29:44;;;;;;;3.70;1.55;;;24.30;56.50;;;;;;2490293;54;20993;-85
2021/06/14 08:32:10;;;;;;;4.12;1.55;;;24.30;56.30;;;;;;2258490;55;20987;-83
2021/06/14 08:34:37;;;;;;;3.58;1.45;;;24.40;56.30;;;;;;2489411;55;20968;-83
2021/06/14 08:37:03;;;;;;;4.60;1.50;;;24.40;56.10;;;;;;2270117;54;21016;-82
2021/06/14 08:39:29;;;;;;;3.70;1.42;;;24.50;55.90;;;;;;2490438;54;21003;-84
2021/06/14 08:41:56;;;;;;;6.00;1.27;;;24.60;56.00;;;;;;2271041;55;20984;-83
2021/06/14 08:44:22;;;;;;;3.72;1.20;;;24.60;55.90;;;;;;2490071;55;21004;-82
2021/06/14 08:46:50;;;;;;;3.00;1.20;;;24.70;55.90;;;;;;2267407;55;21003;-83
2021/06/14 08:49:17;;;;;;;4.07;1.40;;;24.80;55.90;;;;;;2491459;55;20959;-83
2021/06/14 08:51:43;;;;;;;7.15;1.48;;;24.90;56.00;;;;;;2490661;54;21838;-83
2021/06/14 08:54:09;;;;;;;4.12;1.77;;;25.00;55.90;;;;;;2490661;55;21028;-83
2021/06/14 08:56:36;;;;;;;2.55;1.15;;;25.00;55.70;;;;;;2270714;55;21850;-85
2021/06/14 08:59:03;;;;;;;5.70;1.42;;;25.10;55.60;;;;;;2489894;54;21004;-83
2021/06/14 09:01:29;;;;;;;3.78;1.40;;;25.20;55.60;;;;;;2267900;55;20964;-84
2021/06/14 09:03:56;;;;;;;3.08;1.37;;;25.30;55.40;;;;;;2490132;55;20988;-86
2021/06/14 09:06:22;;;;;;;4.07;1.48;;;25.40;55.10;;;;;;2259651;55;21027;-83
2021/06/14 09:09:02;;;;;;;3.30;1.30;;;25.40;54.90;;;;;;2289446;54;21032;-83
2021/06/14 09:11:30;;;;;;;3.03;1.30;;;25.50;54.30;;;;;;2490745;55;21100;-83
2021/06/14 09:13:56;;;;;;;2.50;1.27;;;25.60;54.70;;;;;;2262558;54;20994;-83
2021/06/14 09:16:23;;;;;;;2.87;1.40;;;25.70;54.60;;;;;;2486765;55;20948;-82
2021/06/14 09:18:50;;;;;;;2.65;1.33;;;25.70;54.10;;;;;;2490557;55;21031;-84
2021/06/14 09:21:28;;;;;;;3.62;1.37;;;25.80;53.90;;;;;;2489255;55;21040;-81
2021/06/14 09:23:56;;;;;;;2.58;1.12;;;25.80;53.70;;;;;;2267214;55;21087;-83
2021/06/14 09:26:33;;;;;;;3.33;1.25;;;25.90;53.60;;;;;;2490657;55;20955;-82
2021/06/14 09:29:04;;;;;;;3.08;1.37;;;26.00;52.80;;;;;;2267133;55;21878;-84
2021/06/14 09:31:49;;;;;;;3.62;1.52;;;26.10;53.00;;;;;;2488554;55;21090;-82
2021/06/14 09:34:16;;;;;;;3.17;1.27;;;26.20;52.10;;;;;;2492070;54;20966;-83
2021/06/14 09:36:47;;;;;;;3.15;1.52;;;26.20;52.90;;;;;;2463929;55;21039;-82
2021/06/14 09:39:15;;;;;;;4.55;1.40;;;26.30;52.10;;;;;;2494437;55;20968;-83
2021/06/14 09:41:44;;;;;;;3.17;1.30;;;26.30;52.10;;;;;;2290537;54;21952;-85
2021/06/14 09:44:10;;;;;;;3.58;1.30;;;26.40;52.00;;;;;;2277554;54;21453;-83
2021/06/14 09:46:36;;;;;;;4.60;1.35;;;26.40;52.00;;;;;;2291369;54;21039;-82
2021/06/14 09:49:04;;;;;;;3.22;1.10;;;26.50;51.90;;;;;;2281307;55;21040;-84
2021/06/14 09:51:32;;;;;;;2.70;1.10;;;26.50;51.90;;;;;;2490969;54;21534;-83
2021/06/14 09:53:58;;;;;;;4.00;1.58;;;26.60;51.90;;;;;;2484210;55;21023;-83
2021/06/14 09:56:30;;;;;;;6.25;1.20;;;26.70;51.60;;;;;;2270738;55;20976;-84
2021/06/14 09:58:57;;;;;;;2.95;1.20;;;26.70;51.00;;;;;;2477964;55;21003;-85
2021/06/14 10:01:28;;;;;;;4.40;1.23;;;26.80;51.40;;;;;;2510316;54;21475;-83
2021/06/14 10:03:55;;;;;;;3.47;1.17;;;26.90;51.10;;;;;;2268221;54;20976;-84
2021/06/14 10:06:35;;;;;;;2.75;1.37;;;26.90;51.20;;;;;;2278279;55;21052;-83
2021/06/14 10:09:12;;;;;;;3.60;1.15;;;27.00;50.90;;;;;;2273485;54;20972;-84
2021/06/14 10:11:39;;;;;;;3.45;1.30;;;27.00;50.80;;;;;;2267379;55;20967;-83
2021/06/14 10:14:15;;;;;;;2.97;1.20;;;27.10;50.70;;;;;;2488386;55;21522;-83
2021/06/14 10:16:42;;;;;;;3.33;1.17;;;27.20;50.10;;;;;;2269766;56;21279;-83
2021/06/14 10:19:11;;;;;;;3.45;1.30;;;27.20;50.70;;;;;;2490391;55;21035;-82
2021/06/14 10:21:39;;;;;;;3.05;1.17;;;27.30;50.50;;;;;;2272373;55;21008;-84
2021/06/14 10:24:09;;;;;;;4.53;1.70;;;27.40;50.30;;;;;;2488779;55;21060;-81
2021/06/14 10:26:36;;;;;;;3.53;1.52;;;27.40;50.00;;;;;;2463637;55;21027;-85
2021/06/14 10:29:06;;;;;;;3.08;1.27;;;27.50;49.90;;;;;;2488032;55;20991;-82
2021/06/14 10:31:34;;;;;;;4.65;1.27;;;27.50;49.70;;;;;;2489221;55;21485;-82
2021/06/14 10:34:01;;;;;;;3.03;1.20;;;27.50;49.60;;;;;;2489306;55;20975;-82
2021/06/14 10:36:28;;;;;;;2.08;1.00;;;27.60;49.60;;;;;;2268690;55;20940;-83
2021/06/14 10:38:54;;;;;;;2.55;1.20;;;27.70;49.60;;;;;;2492109;54;21054;-82
2021/06/14 10:41:21;;;;;;;2.20;0.90;;;27.70;49.40;;;;;;2270554;54;20943;-83
2021/06/14 10:43:48;;;;;;;2.92;1.20;;;27.80;49.10;;;;;;2260700;55;20978;-84
2021/06/14 10:46:15;;;;;;;3.05;1.33;;;27.80;48.90;;;;;;2265299;55;20959;-83
2021/06/14 10:48:42;;;;;;;2.92;1.23;;;27.90;48.80;;;;;;2489415;55;21007;-83
2021/06/14 10:51:18;;;;;;;3.22;1.42;;;27.90;48.60;;;;;;2469485;55;21046;-81
2021/06/14 10:53:50;;;;;;;3.67;1.20;;;28.00;47.70;;;;;;2290030;54;21091;-80
2021/06/14 10:56:19;;;;;;;;;;;28.10;48.70;;;;;;2490314;55;20979;-82
2021/06/14 10:59:11;;;;;;;4.47;0.90;;;28.10;48.80;;;;;;2264115;56;20081;-81
2021/06/14 11:01:44;;;;;;;3.05;1.02;;;28.20;48.70;;;;;;2491561;55;21756;-83
2021/06/14 11:04:23;;;;;;;3.65;1.27;;;28.20;48.60;;;;;;2490838;54;21007;-84
2021/06/14 11:06:50;;;;;;;2.15;1.00;;;28.30;47.80;;;;;;2272522;54;20959;-82
2021/06/14 11:09:16;;;;;;;3.47;1.20;;;28.30;48.40;;;;;;2270181;55;21040;-84
2021/06/14 11:11:51;;;;;;;2.75;1.23;;;28.40;48.20;;;;;;2491265;55;21000;-84
2021/06/14 11:14:31;;;;;;;2.97;1.20;;;28.40;47.20;;;;;;2490789;55;21038;-83
2021/06/14 11:16:59;;;;;;;5.47;1.23;;;28.50;47.40;;;;;;2254963;55;20984;-83
2021/06/14 11:19:35;;;;;;;3.75;1.20;;;28.50;47.80;;;;;;2492680;55;21133;-85
2021/06/14 11:22:02;;;;;;;2.75;1.02;;;28.50;46.70;;;;;;2268303;54;21064;-83
2021/06/14 11:24:35;;;;;;;2.03;0.93;;;28.50;47.60;;;;;;2256348;55;21725;-83
2021/06/14 11:27:02;;;;;;;2.53;1.15;;;28.60;47.00;;;;;;2269432;56;20992;-82
2021/06/14 11:29:39;;;;;;;2.70;0.95;;;28.60;47.50;;;;;;2478488;55;21007;-83
2021/06/14 11:32:09;;;;;;;2.67;1.12;;;28.70;47.50;;;;;;2490772;55;21034;-83
2021/06/14 11:34:42;;;;;;;1.87;0.90;;;28.80;47.30;;;;;;2491198;55;20995;-83
2021/06/14 11:37:08;;;;;;;4.07;0.93;;;28.80;46.80;;;;;;2267792;55;21147;-81
2021/06/14 11:39:34;;;;;;;2.70;1.05;;;28.90;47.30;;;;;;2492382;55;21152;-84
2021/06/14 11:43:08;;;;;;;2.45;1.05;;;28.90;47.10;;;;;;2265769;55;21043;-82
2021/06/14 11:45:37;;;;;;;3.22;1.17;;;29.00;46.40;;;;;;2491600;55;20995;-83
2021/06/14 11:48:16;;;;;;;3.00;1.40;;;29.10;47.20;;;;;;2268607;55;21071;-83
2021/06/14 11:50:42;;;;;;;3.25;1.08;;;29.20;46.80;;;;;;2488416;54;20951;-85
2021/06/14 11:53:09;;;;;;;2.00;0.80;;;29.20;46.50;;;;;;2298503;54;21114;-82
2021/06/14 11:55:39;;;;;;;2.42;1.00;;;29.30;46.20;;;;;;2498877;54;21018;-83
2021/06/14 11:58:06;;;;;;;2.85;1.25;;;29.30;45.50;;;;;;2488355;55;21067;-82
2021/06/14 12:00:40;;;;;;;3.00;1.17;;;29.30;45.80;;;;;;2489570;55;21042;-83
2021/06/14 12:03:23;;;;;;;2.33;1.05;;;29.30;45.50;;;;;;2272729;55;21116;-82
2021/06/14 12:05:53;;;;;;;2.25;0.98;;;29.40;45.00;;;;;;2262019;55;20976;-83
2021/06/14 12:08:21;;;;;;;3.45;1.10;;;29.50;45.40;;;;;;2477960;54;21064;-85
2021/06/14 12:11:05;;;;;;;4.40;1.20;;;29.50;45.50;;;;;;2261581;54;21042;-82
2021/06/14 12:13:32;;;;;;;3.12;1.00;;;29.60;44.80;;;;;;2269405;55;21023;-84
2021/06/14 12:15:58;;;;;;;2.00;1.02;;;29.60;45.30;;;;;;2495078;54;20990;-83
2021/06/14 12:18:26;;;;;;;1.90;0.90;;;29.60;45.20;;;;;;2486227;55;20975;-82
2021/06/14 12:21:01;;;;;;;2.35;1.00;;;29.70;45.20;;;;;;2269942;54;21070;-84
2021/06/14 12:23:35;;;;;;;2.87;1.20;;;29.80;44.40;;;;;;2272061;55;20964;-82
2021/06/14 12:26:11;;;;;;;2.75;1.30;;;29.80;44.50;;;;;;2489585;54;21622;-82
2021/06/14 12:28:38;;;;;;;2.60;0.95;;;29.90;44.50;;;;;;2494923;54;21352;-84
2021/06/14 12:31:06;;;;;;;2.95;1.02;;;29.90;44.60;;;;;;2268546;54;20991;-84
2021/06/14 12:33:34;;;;;;;3.33;1.08;;;29.90;44.50;;;;;;2488084;55;21001;-85
2021/06/14 12:36:00;;;;;;;2.60;1.05;;;30.00;44.80;;;;;;2489656;55;20994;-85
2021/06/14 12:38:29;;;;;;;2.20;1.08;;;30.00;44.70;;;;;;2497348;54;20978;-85
2021/06/14 12:40:56;;;;;;;3.40;1.20;;;30.10;44.50;;;;;;2267381;55;21068;-82
2021/06/14 12:43:23;;;;;;;2.45;1.10;;;30.10;44.40;;;;;;2266253;55;20963;-82
2021/06/14 12:45:50;;;;;;;2.47;1.27;;;30.10;44.30;;;;;;2489440;55;21139;-84
2021/06/14 12:48:17;;;;;;;2.37;0.98;;;30.20;44.30;;;;;;2269733;55;21033;-81
2021/06/14 12:50:51;;;;;;;2.35;1.00;;;30.30;44.20;;;;;;2486194;54;20975;-81
2021/06/14 12:53:22;;;;;;;2.55;1.20;;;30.30;43.80;;;;;;2262239;55;20979;-84
2021/06/14 12:55:51;;;;;;;2.83;1.08;;;30.30;43.70;;;;;;2486134;55;21096;-83
2021/06/14 12:58:19;;;;;;;2.25;0.90;;;30.40;43.70;;;;;;2477789;55;20951;-81
2021/06/14 13:00:59;;;;;;;2.65;1.30;;;30.40;43.80;;;;;;2269177;55;21880;-84
2021/06/14 13:03:29;;;;;;;3.05;1.08;;;30.50;43.40;;;;;;2257780;55;20953;-83